createdAt,value
2023-03-04T00:00:26.234Z,55.70
2023-03-04T00:03:16.003Z,55.80
2023-03-04T00:06:03.723Z,55.70
2023-03-04T00:08:53.058Z,55.70
2023-03-04T00:11:42.391Z,55.80
2023-03-04T00:14:31.726Z,55.80
2023-03-04T00:17:22.485Z,55.80
2023-03-04T00:20:13.535Z,55.90
2023-03-04T00:23:00.988Z,55.80
2023-03-04T00:25:48.650Z,56.00
2023-03-04T00:28:39.219Z,56.00
2023-03-04T00:31:26.671Z,56.00
2023-03-04T00:34:15.816Z,56.00
2023-03-04T00:37:05.224Z,56.00
2023-03-04T00:39:54.571Z,55.90
2023-03-04T00:42:43.976Z,56.00
2023-03-04T00:45:33.334Z,56.00
2023-03-04T00:48:20.842Z,56.00
2023-03-04T00:51:09.650Z,56.20
2023-03-04T00:53:59.701Z,56.20
2023-03-04T00:56:48.640Z,56.20
2023-03-04T00:59:38.021Z,56.20
2023-03-04T01:02:27.682Z,56.20
2023-03-04T01:05:15.710Z,56.20
2023-03-04T01:08:06.431Z,56.30
2023-03-04T01:10:55.746Z,56.30
2023-03-04T01:13:45.067Z,56.30
2023-03-04T01:16:34.689Z,56.40
2023-03-04T01:19:24.268Z,56.30
2023-03-04T01:22:15.186Z,56.50
2023-03-04T01:25:07.006Z,56.50
2023-03-04T01:27:56.294Z,56.50
2023-03-04T01:30:45.640Z,56.50
2023-03-04T01:33:35.013Z,56.40
2023-03-04T01:36:26.026Z,56.30
2023-03-04T01:39:15.319Z,56.40
2023-03-04T01:42:06.555Z,56.50
2023-03-04T01:44:55.858Z,56.50
2023-03-04T01:47:49.347Z,56.50
2023-03-04T01:50:37.101Z,56.70
2023-03-04T01:53:27.728Z,56.50
2023-03-04T01:56:20.817Z,56.50
2023-03-04T01:59:14.720Z,56.40
2023-03-04T02:02:04.179Z,56.50
2023-03-04T02:04:51.977Z,56.50
2023-03-04T02:07:39.976Z,56.50
2023-03-04T02:10:30.653Z,56.70
2023-03-04T02:13:18.674Z,56.80
2023-03-04T02:16:09.588Z,57.40
2023-03-04T02:18:59.356Z,56.80
2023-03-04T02:21:47.861Z,56.80
2023-03-04T02:24:42.721Z,56.70
2023-03-04T02:27:31.372Z,56.90
2023-03-04T02:30:25.335Z,56.80
2023-03-04T02:33:20.071Z,56.90
2023-03-04T02:36:09.966Z,57.00
2023-03-04T02:39:03.266Z,56.80
2023-03-04T02:41:55.964Z,56.90
2023-03-04T02:44:50.361Z,56.80
2023-03-04T02:47:40.421Z,56.90
2023-03-04T02:50:35.887Z,56.80
2023-03-04T02:53:25.442Z,56.80
2023-03-04T02:56:13.512Z,56.80
2023-03-04T02:59:02.810Z,56.80
2023-03-04T03:01:52.538Z,56.80
2023-03-04T03:04:43.018Z,56.80
2023-03-04T03:07:34.891Z,56.80
2023-03-04T03:10:25.637Z,56.80
2023-03-04T03:13:13.288Z,56.70
2023-03-04T03:16:01.482Z,56.70
2023-03-04T03:18:52.474Z,57.40
2023-03-04T03:21:41.116Z,56.70
2023-03-04T03:24:28.665Z,56.80
2023-03-04T03:27:18.684Z,56.70
2023-03-04T03:30:09.520Z,56.80
2023-03-04T03:32:58.096Z,56.90
2023-03-04T03:35:49.063Z,56.90
2023-03-04T03:38:36.953Z,57.00
2023-03-04T03:41:26.327Z,57.00
2023-03-04T03:44:13.930Z,57.00
2023-03-04T03:47:04.100Z,57.00
2023-03-04T03:49:51.753Z,57.20
2023-03-04T03:52:40.784Z,57.10
2023-03-04T03:55:30.094Z,57.20
2023-03-04T03:58:17.934Z,57.20
2023-03-04T04:01:07.302Z,57.20
2023-03-04T04:03:55.096Z,57.00
2023-03-04T04:06:42.560Z,57.20
2023-03-04T04:09:33.252Z,57.20
2023-03-04T04:12:22.594Z,57.30
2023-03-04T04:15:13.228Z,57.40
2023-03-04T04:18:00.788Z,57.50
2023-03-04T04:20:50.085Z,57.40
2023-03-04T04:23:39.375Z,57.40
2023-03-04T04:26:30.074Z,57.50
2023-03-04T04:29:20.314Z,57.50
2023-03-04T04:32:09.965Z,57.50
2023-03-04T04:34:59.321Z,57.50
2023-03-04T04:37:48.678Z,57.70
2023-03-04T04:40:38.608Z,57.70
2023-03-04T04:43:29.280Z,57.60
2023-03-04T04:46:19.152Z,57.70
2023-03-04T04:49:07.645Z,57.70
2023-03-04T04:51:55.473Z,57.70
2023-03-04T04:54:44.810Z,57.70
2023-03-04T04:57:35.592Z,57.70
2023-03-04T05:00:26.486Z,57.70
2023-03-04T05:03:18.297Z,57.70
2023-03-04T05:06:10.491Z,57.70
2023-03-04T05:08:59.786Z,57.70
2023-03-04T05:11:49.088Z,57.70
2023-03-04T05:14:36.648Z,57.50
2023-03-04T05:17:27.331Z,57.70
2023-03-04T05:20:16.875Z,57.70
2023-03-04T05:23:06.353Z,57.80
2023-03-04T05:25:56.020Z,57.90
2023-03-04T05:28:43.632Z,58.00
2023-03-04T05:31:31.923Z,58.00
2023-03-04T05:34:22.593Z,58.10
2023-03-04T05:37:11.895Z,58.10
2023-03-04T05:40:01.219Z,58.00
2023-03-04T05:42:50.530Z,57.90
2023-03-04T05:45:40.374Z,58.10
2023-03-04T05:48:29.764Z,58.20
2023-03-04T05:51:20.858Z,58.10
2023-03-04T05:54:10.149Z,58.30
2023-03-04T05:56:59.583Z,58.20
2023-03-04T05:59:48.853Z,58.30
2023-03-04T06:02:38.867Z,58.40
2023-03-04T06:05:28.205Z,58.30
2023-03-04T06:08:18.924Z,58.30
2023-03-04T06:11:08.663Z,58.40
2023-03-04T06:13:58.051Z,58.40
2023-03-04T06:16:47.460Z,58.50
2023-03-04T06:19:38.032Z,58.50
2023-03-04T06:22:27.420Z,58.40
2023-03-04T06:25:18.586Z,58.50
2023-03-04T06:28:07.903Z,58.70
2023-03-04T06:30:59.130Z,58.70
2023-03-04T06:33:48.432Z,58.80
2023-03-04T06:36:37.887Z,58.80
2023-03-04T06:39:27.434Z,58.90
2023-03-04T06:42:18.219Z,58.90
2023-03-04T06:45:09.488Z,59.00
2023-03-04T06:47:58.785Z,59.00
2023-03-04T06:50:48.091Z,59.00
2023-03-04T06:53:37.869Z,59.10
2023-03-04T06:56:27.156Z,59.20
2023-03-04T06:59:18.060Z,59.20
2023-03-04T07:02:08.470Z,59.50
2023-03-04T07:04:57.736Z,59.30
2023-03-04T07:07:47.072Z,59.30
2023-03-04T07:10:36.504Z,59.40
2023-03-04T07:13:25.824Z,59.50
2023-03-04T07:16:19.947Z,59.40
2023-03-04T07:19:09.325Z,59.60
2023-03-04T07:21:58.735Z,59.50
2023-03-04T07:24:48.017Z,59.60
2023-03-04T07:27:38.647Z,59.60
2023-03-04T07:30:27.938Z,59.70
2023-03-04T07:33:19.572Z,59.70
2023-03-04T07:36:09.207Z,59.90
2023-03-04T07:38:58.712Z,59.90
2023-03-04T07:41:46.218Z,59.80
2023-03-04T07:44:33.837Z,59.90
2023-03-04T07:47:22.015Z,60.00
2023-03-04T07:50:17.584Z,60.00
2023-03-04T07:53:07.219Z,60.40
2023-03-04T07:55:56.500Z,60.40
2023-03-04T07:58:46.505Z,60.40
2023-03-04T08:01:38.701Z,60.60
2023-03-04T08:04:28.108Z,60.80
2023-03-04T08:07:18.877Z,60.70
2023-03-04T08:10:09.794Z,60.90
2023-03-04T08:12:59.469Z,60.80
2023-03-04T08:15:49.039Z,60.90
2023-03-04T08:18:39.754Z,60.90
2023-03-04T08:21:29.854Z,61.10
2023-03-04T08:24:18.766Z,61.20
2023-03-04T08:27:06.995Z,61.60
2023-03-04T08:29:56.695Z,61.80
2023-03-04T08:32:46.174Z,62.10
2023-03-04T08:35:38.231Z,62.50
2023-03-04T08:38:26.149Z,62.90
2023-03-04T08:41:16.851Z,63.80
2023-03-04T08:44:05.197Z,63.60
2023-03-04T08:46:52.795Z,63.70
2023-03-04T08:49:42.138Z,64.10
2023-03-04T08:52:31.846Z,64.20
2023-03-04T08:55:22.537Z,64.30
2023-03-04T08:58:14.494Z,64.20
2023-03-04T09:01:05.289Z,64.00
2023-03-04T09:03:54.735Z,63.50
2023-03-04T09:06:44.164Z,63.20
2023-03-04T09:09:33.480Z,63.20
2023-03-04T09:12:22.814Z,63.20
2023-03-04T09:15:14.641Z,63.30
2023-03-04T09:18:04.270Z,63.50
2023-03-04T09:20:53.721Z,63.40
2023-03-04T09:23:43.342Z,63.40
2023-03-04T09:26:32.809Z,63.40
2023-03-04T09:29:23.466Z,63.30
2023-03-04T09:32:12.738Z,63.60
2023-03-04T09:35:00.577Z,63.90
2023-03-04T09:37:49.011Z,64.10
2023-03-04T09:40:43.520Z,64.20
2023-03-04T09:43:32.225Z,64.30
2023-03-04T09:46:34.277Z,64.30
2023-03-04T09:49:24.183Z,64.40
2023-03-04T09:52:22.898Z,64.40
2023-03-04T09:55:22.604Z,64.70
2023-03-04T09:58:29.662Z,64.80
2023-03-04T10:01:26.674Z,64.90
2023-03-04T10:04:21.824Z,64.70
2023-03-04T10:07:20.166Z,64.50
2023-03-04T10:10:15.322Z,64.80
2023-03-04T10:13:05.046Z,64.70
2023-03-04T10:15:54.260Z,64.60
2023-03-04T10:18:51.121Z,64.70
2023-03-04T10:21:44.717Z,65.00
2023-03-04T10:24:36.721Z,64.90
2023-03-04T10:27:26.885Z,64.90
2023-03-04T10:30:37.534Z,64.70
2023-03-04T10:33:31.168Z,65.10
2023-03-04T10:36:38.017Z,65.00
2023-03-04T10:39:31.199Z,65.60
2023-03-04T10:42:37.366Z,65.20
2023-03-04T10:45:35.371Z,65.80
2023-03-04T10:48:27.467Z,65.50
2023-03-04T10:51:22.830Z,65.40
2023-03-04T10:54:28.969Z,65.60
2023-03-04T10:57:19.690Z,65.90
2023-03-04T11:00:28.720Z,65.60
2023-03-04T11:03:33.406Z,66.20
2023-03-04T11:06:23.648Z,66.20
2023-03-04T11:09:24.918Z,65.60
2023-03-04T11:12:17.971Z,65.90
2023-03-04T11:15:24.351Z,65.30
2023-03-04T11:18:15.598Z,65.80
2023-03-04T11:21:05.747Z,65.10
2023-03-04T11:23:59.030Z,64.90
2023-03-04T11:26:52.844Z,65.10
2023-03-04T11:29:47.996Z,65.10
2023-03-04T11:32:45.504Z,65.30
2023-03-04T11:35:43.633Z,65.40
2023-03-04T11:38:38.945Z,65.30
2023-03-04T11:41:33.777Z,65.50
2023-03-04T11:44:23.080Z,65.70
2023-03-04T11:47:48.797Z,65.90
2023-03-04T11:50:47.911Z,66.30
2023-03-04T11:53:55.439Z,66.20
2023-03-04T11:56:47.298Z,66.00
2023-03-04T11:59:57.211Z,65.80
2023-03-04T12:03:02.153Z,65.50
2023-03-04T12:05:59.952Z,65.20
2023-03-04T12:09:04.642Z,65.10
2023-03-04T12:12:05.286Z,65.10
2023-03-04T12:15:08.179Z,64.90
2023-03-04T12:18:37.119Z,64.90
2023-03-04T12:21:57.859Z,65.10
2023-03-04T12:25:16.683Z,64.90
2023-03-04T12:28:43.305Z,65.00
2023-03-04T12:31:39.129Z,65.20
2023-03-04T12:35:07.315Z,65.00
2023-03-04T12:38:17.386Z,65.30
2023-03-04T12:41:36.089Z,65.30
2023-03-04T12:44:25.516Z,65.40
2023-03-04T12:47:28.322Z,65.40
2023-03-04T12:50:33.273Z,65.60
2023-03-04T12:53:31.098Z,65.70
2023-03-04T12:56:28.052Z,64.50
2023-03-04T12:59:20.998Z,64.20
2023-03-04T13:02:36.983Z,64.10
2023-03-04T13:05:57.309Z,64.30
2023-03-04T13:08:59.385Z,64.00
2023-03-04T13:12:04.490Z,63.80
2023-03-04T13:15:32.230Z,63.50
2023-03-04T13:18:36.282Z,63.30
2023-03-04T13:21:29.448Z,62.90
2023-03-04T13:24:50.247Z,62.60
2023-03-04T13:28:13.865Z,63.90
2023-03-04T13:31:18.698Z,64.00
2023-03-04T13:34:49.326Z,64.20
2023-03-04T13:37:39.021Z,64.60
2023-03-04T13:40:38.411Z,64.50
2023-03-04T13:43:30.245Z,64.70
2023-03-04T13:46:44.120Z,64.60
2023-03-04T13:49:31.725Z,64.80
2023-03-04T13:52:47.498Z,64.90
2023-03-04T13:55:40.006Z,65.10
2023-03-04T13:58:29.342Z,64.90
2023-03-04T14:01:28.905Z,64.90
2023-03-04T14:04:20.767Z,64.00
2023-03-04T14:07:25.870Z,63.90
2023-03-04T14:10:26.330Z,63.90
2023-03-04T14:13:15.714Z,63.70
2023-03-04T14:16:05.723Z,63.40
2023-03-04T14:19:03.509Z,63.30
2023-03-04T14:21:53.061Z,63.30
2023-03-04T14:24:42.344Z,63.30
2023-03-04T14:27:36.272Z,64.20
2023-03-04T14:30:41.738Z,64.40
2023-03-04T14:33:32.495Z,64.40
2023-03-04T14:36:24.447Z,64.40
2023-03-04T14:39:19.400Z,64.50
2023-03-04T14:42:12.841Z,64.40
2023-03-04T14:45:04.375Z,64.50
2023-03-04T14:47:58.329Z,64.40
2023-03-04T14:50:50.474Z,64.30
2023-03-04T14:53:56.071Z,64.30
2023-03-04T14:56:46.043Z,64.50
2023-03-04T14:59:37.178Z,63.90
2023-03-04T15:02:33.633Z,63.90
2023-03-04T15:05:27.328Z,64.10
2023-03-04T15:08:25.177Z,64.30
2023-03-04T15:11:24.210Z,64.50
2023-03-04T15:14:45.350Z,64.60
2023-03-04T15:17:42.605Z,64.70
2023-03-04T15:20:33.496Z,64.50
2023-03-04T15:23:22.867Z,64.50
2023-03-04T15:26:14.224Z,64.50
2023-03-04T15:29:11.772Z,64.60
2023-03-04T15:32:01.325Z,64.70
2023-03-04T15:34:52.115Z,64.50
2023-03-04T15:37:42.821Z,64.60
2023-03-04T15:40:34.882Z,64.50
2023-03-04T15:43:25.433Z,64.50
2023-03-04T15:46:16.891Z,64.30
2023-03-04T15:49:07.098Z,64.20
2023-03-04T15:51:57.866Z,64.30
2023-03-04T15:54:47.924Z,64.20
2023-03-04T15:57:37.287Z,64.20
2023-03-04T16:00:27.298Z,64.20
2023-03-04T16:03:19.034Z,64.50
2023-03-04T16:06:12.383Z,64.30
2023-03-04T16:09:07.083Z,64.30
2023-03-04T16:12:01.798Z,64.30
2023-03-04T16:14:51.279Z,64.40
2023-03-04T16:17:43.891Z,64.50
2023-03-04T16:20:33.531Z,64.60
2023-03-04T16:23:25.121Z,64.60
2023-03-04T16:26:20.333Z,64.70
2023-03-04T16:29:11.267Z,64.90
2023-03-04T16:32:00.632Z,65.00
2023-03-04T16:34:50.432Z,64.80
2023-03-04T16:37:40.397Z,64.80
2023-03-04T16:40:31.921Z,64.70
2023-03-04T16:43:23.074Z,64.80
2023-03-04T16:46:14.026Z,64.70
2023-03-04T16:49:03.297Z,64.70
2023-03-04T16:51:52.785Z,64.60
2023-03-04T16:54:42.359Z,64.60
2023-03-04T16:57:31.725Z,64.30
2023-03-04T17:00:25.437Z,64.30
2023-03-04T17:03:14.773Z,64.40
2023-03-04T17:06:04.089Z,64.00
2023-03-04T17:08:53.425Z,64.00
2023-03-04T17:11:42.708Z,64.00
2023-03-04T17:14:32.071Z,64.00
2023-03-04T17:17:23.030Z,64.10
2023-03-04T17:20:15.362Z,64.20
2023-03-04T17:23:04.711Z,64.30
2023-03-04T17:25:58.093Z,64.30
2023-03-04T17:28:47.534Z,64.60
2023-03-04T17:31:38.132Z,64.20
2023-03-04T17:34:28.892Z,64.40
2023-03-04T17:37:18.163Z,64.60
2023-03-04T17:40:11.286Z,64.40
2023-03-04T17:43:01.047Z,64.60
2023-03-04T17:45:50.400Z,64.70
2023-03-04T17:48:40.412Z,64.80
2023-03-04T17:51:37.089Z,65.00
2023-03-04T17:54:27.006Z,65.60
2023-03-04T17:57:16.339Z,65.30
2023-03-04T18:00:07.342Z,65.50
2023-03-04T18:02:56.694Z,65.50
2023-03-04T18:05:46.058Z,65.50
2023-03-04T18:08:36.785Z,65.40
2023-03-04T18:11:28.170Z,65.70
2023-03-04T18:14:17.649Z,65.40
2023-03-04T18:17:07.100Z,65.30
2023-03-04T18:19:56.776Z,65.30
2023-03-04T18:22:46.491Z,65.30
2023-03-04T18:25:37.443Z,65.40
2023-03-04T18:28:26.688Z,65.60
2023-03-04T18:31:19.005Z,65.60
2023-03-04T18:34:08.362Z,65.90
2023-03-04T18:36:57.635Z,65.90
2023-03-04T18:39:46.974Z,66.00
2023-03-04T18:42:37.681Z,66.20
2023-03-04T18:45:27.363Z,66.40
2023-03-04T18:48:16.792Z,66.30
2023-03-04T18:51:06.902Z,66.30
2023-03-04T18:53:56.298Z,66.30
2023-03-04T18:56:49.994Z,66.10
2023-03-04T18:59:45.904Z,66.40
2023-03-04T19:02:42.858Z,66.40
2023-03-04T19:05:34.825Z,66.30
2023-03-04T19:08:24.487Z,66.20
2023-03-04T19:11:14.676Z,66.20
2023-03-04T19:14:04.389Z,66.20
2023-03-04T19:16:55.142Z,66.30
2023-03-04T19:19:44.717Z,66.50
2023-03-04T19:22:34.393Z,66.30
2023-03-04T19:25:23.794Z,66.20
2023-03-04T19:28:13.461Z,66.20
2023-03-04T19:31:07.121Z,66.30
2023-03-04T19:33:57.880Z,66.70
2023-03-04T19:36:47.258Z,66.40
2023-03-04T19:39:36.641Z,67.00
2023-03-04T19:42:25.981Z,66.20
2023-03-04T19:45:15.322Z,66.40
2023-03-04T19:48:05.324Z,66.60
2023-03-04T19:50:55.987Z,66.70
2023-03-04T19:53:45.669Z,67.30
2023-03-04T19:56:35.036Z,67.20
2023-03-04T19:59:24.635Z,67.00
2023-03-04T20:02:13.942Z,66.70
2023-03-04T20:05:03.360Z,66.30
2023-03-04T20:07:54.423Z,66.30
2023-03-04T20:10:43.778Z,66.60
2023-03-04T20:13:33.102Z,66.60
2023-03-04T20:16:22.612Z,66.80
2023-03-04T20:19:11.938Z,66.90
2023-03-04T20:22:01.439Z,67.30
2023-03-04T20:24:53.887Z,67.30
2023-03-04T20:27:43.244Z,67.80
2023-03-04T20:30:32.591Z,67.40
2023-03-04T20:33:22.255Z,67.60
2023-03-04T20:36:11.856Z,67.80
2023-03-04T20:39:03.543Z,67.80
2023-03-04T20:41:57.461Z,68.00
2023-03-04T20:44:46.829Z,68.30
2023-03-04T20:47:39.474Z,68.10
2023-03-04T20:50:29.054Z,68.20
2023-03-04T20:53:18.349Z,68.30
2023-03-04T20:56:07.828Z,68.30
2023-03-04T20:59:01.406Z,68.30
2023-03-04T21:01:52.053Z,68.80
2023-03-04T21:04:42.168Z,68.40
2023-03-04T21:07:31.748Z,68.40
2023-03-04T21:10:21.202Z,68.60
2023-03-04T21:13:12.723Z,68.60
2023-03-04T21:16:04.430Z,68.60
2023-03-04T21:18:55.361Z,68.70
2023-03-04T21:21:45.672Z,68.40
2023-03-04T21:24:39.431Z,68.50
2023-03-04T21:27:28.911Z,68.60
2023-03-04T21:30:18.756Z,68.20
2023-03-04T21:33:19.143Z,68.30
2023-03-04T21:36:10.255Z,68.70
2023-03-04T21:38:59.588Z,68.10
2023-03-04T21:41:49.731Z,68.10
2023-03-04T21:44:49.162Z,68.10
2023-03-04T21:47:39.294Z,68.10
2023-03-04T21:50:29.934Z,68.10
2023-03-04T21:53:21.825Z,68.20
2023-03-04T21:56:13.273Z,68.10
2023-03-04T21:59:02.944Z,68.20
2023-03-04T22:01:52.458Z,68.20
2023-03-04T22:04:41.887Z,68.20
2023-03-04T22:07:32.586Z,68.40
2023-03-04T22:10:21.855Z,68.60
2023-03-04T22:13:13.635Z,68.40
2023-03-04T22:16:03.273Z,68.50
2023-03-04T22:18:53.095Z,68.50
2023-03-04T22:21:42.395Z,68.60
2023-03-04T22:24:33.124Z,68.60
2023-03-04T22:27:22.493Z,68.90
2023-03-04T22:30:13.867Z,68.80
2023-03-04T22:33:04.233Z,69.10
2023-03-04T22:35:53.947Z,68.90
2023-03-04T22:38:44.553Z,68.90
2023-03-04T22:41:35.604Z,68.80
2023-03-04T22:44:25.206Z,69.00
2023-03-04T22:47:14.514Z,68.70
2023-03-04T22:50:04.019Z,68.60
2023-03-04T22:52:53.757Z,68.80
2023-03-04T22:55:43.061Z,68.80
2023-03-04T22:58:33.884Z,68.90
2023-03-04T23:01:23.407Z,68.80
2023-03-04T23:04:12.746Z,68.70
2023-03-04T23:07:02.059Z,68.70
2023-03-04T23:09:51.443Z,68.70
2023-03-04T23:12:41.009Z,68.80
2023-03-04T23:15:31.780Z,68.80
2023-03-04T23:18:21.117Z,69.00
2023-03-04T23:21:12.371Z,68.70
2023-03-04T23:24:02.512Z,68.90
2023-03-04T23:26:53.290Z,68.80
2023-03-04T23:29:42.643Z,68.70
2023-03-04T23:32:33.387Z,68.80
2023-03-04T23:35:22.823Z,69.10
2023-03-04T23:38:12.225Z,69.00
2023-03-04T23:41:01.580Z,68.70
2023-03-04T23:43:53.648Z,68.80
2023-03-04T23:46:43.202Z,68.90
2023-03-04T23:49:34.086Z,68.90
2023-03-04T23:52:23.354Z,69.10
2023-03-04T23:55:17.346Z,68.80
2023-03-04T23:58:06.716Z,69.30
